sensor_id;sensor_type;location;lat;lon;timestamp;P1;durP1;ratioP1;P2;durP2;ratioP2
79137;SDS011;68544;45.566;10.238;2023-05-10T00:00:04;2.87;;;1.80;;
79137;SDS011;68544;45.566;10.238;2023-05-10T00:02:30;2.08;;;1.63;;
79137;SDS011;68544;45.566;10.238;2023-05-10T00:04:56;2.83;;;2.03;;
79137;SDS011;68544;45.566;10.238;2023-05-10T00:07:21;4.53;;;1.93;;
79137;SDS011;68544;45.566;10.238;2023-05-10T00:09:47;3.50;;;1.80;;
79137;SDS011;68544;45.566;10.238;2023-05-10T00:12:12;3.93;;;1.90;;
79137;SDS011;68544;45.566;10.238;2023-05-10T00:14:38;3.50;;;2.00;;
79137;SDS011;68544;45.566;10.238;2023-05-10T00:17:03;2.57;;;1.90;;
79137;SDS011;68544;45.566;10.238;2023-05-10T00:19:28;3.72;;;2.40;;
79137;SDS011;68544;45.566;10.238;2023-05-10T00:21:54;2.60;;;1.90;;
79137;SDS011;68544;45.566;10.238;2023-05-10T00:24:19;2.97;;;1.90;;
79137;SDS011;68544;45.566;10.238;2023-05-10T00:26:45;3.28;;;2.25;;
79137;SDS011;68544;45.566;10.238;2023-05-10T00:29:10;4.90;;;2.33;;
79137;SDS011;68544;45.566;10.238;2023-05-10T00:31:35;2.73;;;2.23;;
79137;SDS011;68544;45.566;10.238;2023-05-10T00:34:01;4.33;;;2.50;;
79137;SDS011;68544;45.566;10.238;2023-05-10T00:36:26;2.97;;;2.30;;
79137;SDS011;68544;45.566;10.238;2023-05-10T00:38:52;3.55;;;2.03;;
79137;SDS011;68544;45.566;10.238;2023-05-10T00:41:18;2.83;;;2.47;;
79137;SDS011;68544;45.566;10.238;2023-05-10T00:43:43;5.30;;;3.07;;
79137;SDS011;68544;45.566;10.238;2023-05-10T00:46:08;6.30;;;3.00;;
79137;SDS011;68544;45.566;10.238;2023-05-10T00:48:34;3.25;;;2.60;;
79137;SDS011;68544;45.566;10.238;2023-05-10T00:51:00;5.50;;;2.72;;
79137;SDS011;68544;45.566;10.238;2023-05-10T00:55:52;4.30;;;2.90;;
79137;SDS011;68544;45.566;10.238;2023-05-10T00:58:17;3.58;;;3.15;;
79137;SDS011;68544;45.566;10.238;2023-05-10T01:00:42;4.00;;;3.30;;
79137;SDS011;68544;45.566;10.238;2023-05-10T01:03:11;4.93;;;3.15;;
79137;SDS011;68544;45.566;10.238;2023-05-10T01:05:37;4.03;;;2.92;;
79137;SDS011;68544;45.566;10.238;2023-05-10T01:08:02;3.53;;;3.17;;
79137;SDS011;68544;45.566;10.238;2023-05-10T01:10:28;4.03;;;3.33;;
79137;SDS011;68544;45.566;10.238;2023-05-10T01:12:54;3.17;;;2.88;;
79137;SDS011;68544;45.566;10.238;2023-05-10T01:15:20;4.57;;;2.70;;
79137;SDS011;68544;45.566;10.238;2023-05-10T01:17:45;4.78;;;3.45;;
79137;SDS011;68544;45.566;10.238;2023-05-10T01:20:12;3.53;;;3.10;;
79137;SDS011;68544;45.566;10.238;2023-05-10T01:33:59;3.55;;;2.85;;
79137;SDS011;68544;45.566;10.238;2023-05-10T01:39:05;3.13;;;2.70;;
79137;SDS011;68544;45.566;10.238;2023-05-10T01:41:51;3.03;;;2.60;;
79137;SDS011;68544;45.566;10.238;2023-05-10T01:46:48;3.53;;;2.60;;
79137;SDS011;68544;45.566;10.238;2023-05-10T01:51:51;3.45;;;2.45;;
79137;SDS011;68544;45.566;10.238;2023-05-10T01:54:20;3.55;;;2.75;;
79137;SDS011;68544;45.566;10.238;2023-05-10T01:56:57;4.55;;;2.80;;
79137;SDS011;68544;45.566;10.238;2023-05-10T01:59:29;3.95;;;2.70;;
79137;SDS011;68544;45.566;10.238;2023-05-10T02:02:01;3.38;;;3.08;;
79137;SDS011;68544;45.566;10.238;2023-05-10T02:04:29;3.47;;;2.70;;
79137;SDS011;68544;45.566;10.238;2023-05-10T02:06:56;3.00;;;2.70;;
79137;SDS011;68544;45.566;10.238;2023-05-10T02:11:49;3.58;;;2.75;;
79137;SDS011;68544;45.566;10.238;2023-05-10T02:14:15;4.35;;;3.00;;
79137;SDS011;68544;45.566;10.238;2023-05-10T02:16:43;4.82;;;2.72;;
79137;SDS011;68544;45.566;10.238;2023-05-10T02:19:11;4.30;;;3.00;;
79137;SDS011;68544;45.566;10.238;2023-05-10T02:21:39;4.80;;;2.38;;
79137;SDS011;68544;45.566;10.238;2023-05-10T02:24:06;2.97;;;2.15;;
79137;SDS011;68544;45.566;10.238;2023-05-10T02:26:35;3.00;;;2.35;;
79137;SDS011;68544;45.566;10.238;2023-05-10T02:29:02;3.05;;;2.67;;
79137;SDS011;68544;45.566;10.238;2023-05-10T02:31:33;4.15;;;2.83;;
79137;SDS011;68544;45.566;10.238;2023-05-10T02:34:00;3.17;;;2.50;;
79137;SDS011;68544;45.566;10.238;2023-05-10T02:36:27;3.35;;;2.70;;
79137;SDS011;68544;45.566;10.238;2023-05-10T02:38:54;2.20;;;1.73;;
79137;SDS011;68544;45.566;10.238;2023-05-10T02:43:49;7.28;;;2.22;;
79137;SDS011;68544;45.566;10.238;2023-05-10T02:46:17;3.00;;;2.50;;
79137;SDS011;68544;45.566;10.238;2023-05-10T02:48:43;3.42;;;2.70;;
79137;SDS011;68544;45.566;10.238;2023-05-10T02:51:08;4.63;;;2.60;;
79137;SDS011;68544;45.566;10.238;2023-05-10T02:53:38;3.22;;;2.38;;
79137;SDS011;68544;45.566;10.238;2023-05-10T02:56:09;3.60;;;2.72;;
79137;SDS011;68544;45.566;10.238;2023-05-10T02:58:39;3.00;;;2.20;;
79137;SDS011;68544;45.566;10.238;2023-05-10T03:01:04;2.15;;;1.90;;
79137;SDS011;68544;45.566;10.238;2023-05-10T03:03:31;4.03;;;2.50;;
79137;SDS011;68544;45.566;10.238;2023-05-10T03:05:57;4.90;;;2.57;;
79137;SDS011;68544;45.566;10.238;2023-05-10T03:08:23;5.18;;;2.63;;
79137;SDS011;68544;45.566;10.238;2023-05-10T03:13:36;3.95;;;2.65;;
79137;SDS011;68544;45.566;10.238;2023-05-10T03:16:11;3.10;;;2.58;;
79137;SDS011;68544;45.566;10.238;2023-05-10T03:21:31;4.10;;;2.38;;
79137;SDS011;68544;45.566;10.238;2023-05-10T03:26:32;3.13;;;2.67;;
79137;SDS011;68544;45.566;10.238;2023-05-10T03:28:59;4.22;;;3.00;;
79137;SDS011;68544;45.566;10.238;2023-05-10T03:31:25;4.35;;;3.20;;
79137;SDS011;68544;45.566;10.238;2023-05-10T03:33:51;3.80;;;3.28;;
79137;SDS011;68544;45.566;10.238;2023-05-10T03:36:18;3.85;;;2.97;;
79137;SDS011;68544;45.566;10.238;2023-05-10T03:41:09;3.35;;;2.50;;
79137;SDS011;68544;45.566;10.238;2023-05-10T03:43:35;3.47;;;2.50;;
79137;SDS011;68544;45.566;10.238;2023-05-10T03:46:04;2.90;;;2.30;;
79137;SDS011;68544;45.566;10.238;2023-05-10T03:48:30;2.38;;;2.10;;
79137;SDS011;68544;45.566;10.238;2023-05-10T03:50:57;2.70;;;2.30;;
79137;SDS011;68544;45.566;10.238;2023-05-10T03:53:22;3.50;;;2.77;;
79137;SDS011;68544;45.566;10.238;2023-05-10T03:55:48;3.63;;;2.70;;
79137;SDS011;68544;45.566;10.238;2023-05-10T03:58:14;3.65;;;3.15;;
79137;SDS011;68544;45.566;10.238;2023-05-10T04:00:39;6.18;;;3.80;;
79137;SDS011;68544;45.566;10.238;2023-05-10T04:03:08;5.00;;;3.47;;
79137;SDS011;68544;45.566;10.238;2023-05-10T04:05:34;3.72;;;3.33;;
79137;SDS011;68544;45.566;10.238;2023-05-10T04:08:00;5.80;;;4.68;;
79137;SDS011;68544;45.566;10.238;2023-05-10T04:10:26;5.40;;;4.67;;
79137;SDS011;68544;45.566;10.238;2023-05-10T04:12:51;5.40;;;4.80;;
79137;SDS011;68544;45.566;10.238;2023-05-10T04:15:16;6.80;;;5.10;;
79137;SDS011;68544;45.566;10.238;2023-05-10T04:17:42;5.43;;;4.63;;
79137;SDS011;68544;45.566;10.238;2023-05-10T04:20:07;5.90;;;4.97;;
79137;SDS011;68544;45.566;10.238;2023-05-10T04:22:33;6.28;;;4.85;;
79137;SDS011;68544;45.566;10.238;2023-05-10T04:24:59;4.90;;;4.40;;
79137;SDS011;68544;45.566;10.238;2023-05-10T04:27:24;6.18;;;4.15;;
79137;SDS011;68544;45.566;10.238;2023-05-10T04:29:50;7.07;;;4.27;;
79137;SDS011;68544;45.566;10.238;2023-05-10T04:32:15;5.70;;;4.95;;
79137;SDS011;68544;45.566;10.238;2023-05-10T04:37:07;7.50;;;5.25;;
79137;SDS011;68544;45.566;10.238;2023-05-10T04:39:33;6.07;;;5.17;;
79137;SDS011;68544;45.566;10.238;2023-05-10T04:41:58;6.57;;;5.47;;
79137;SDS011;68544;45.566;10.238;2023-05-10T04:44:24;7.93;;;5.60;;
79137;SDS011;68544;45.566;10.238;2023-05-10T04:46:49;7.63;;;6.13;;
79137;SDS011;68544;45.566;10.238;2023-05-10T04:49:14;9.23;;;6.30;;
79137;SDS011;68544;45.566;10.238;2023-05-10T04:51:40;7.40;;;6.03;;
79137;SDS011;68544;45.566;10.238;2023-05-10T04:54:05;8.87;;;6.37;;
79137;SDS011;68544;45.566;10.238;2023-05-10T04:56:31;7.00;;;6.13;;
79137;SDS011;68544;45.566;10.238;2023-05-10T04:58:56;7.10;;;5.80;;
79137;SDS011;68544;45.566;10.238;2023-05-10T05:01:22;6.67;;;5.97;;
79137;SDS011;68544;45.566;10.238;2023-05-10T05:03:48;5.97;;;5.38;;
79137;SDS011;68544;45.566;10.238;2023-05-10T05:06:13;5.80;;;5.20;;
79137;SDS011;68544;45.566;10.238;2023-05-10T05:08:39;5.77;;;5.17;;
79137;SDS011;68544;45.566;10.238;2023-05-10T05:11:04;7.10;;;4.97;;
79137;SDS011;68544;45.566;10.238;2023-05-10T05:13:30;7.50;;;5.57;;
79137;SDS011;68544;45.566;10.238;2023-05-10T05:15:55;5.82;;;5.15;;
79137;SDS011;68544;45.566;10.238;2023-05-10T05:18:21;6.60;;;4.77;;
79137;SDS011;68544;45.566;10.238;2023-05-10T05:20:46;7.07;;;4.70;;
79137;SDS011;68544;45.566;10.238;2023-05-10T05:23:12;5.40;;;4.90;;
79137;SDS011;68544;45.566;10.238;2023-05-10T05:25:37;7.60;;;5.23;;
79137;SDS011;68544;45.566;10.238;2023-05-10T05:28:02;5.40;;;4.63;;
79137;SDS011;68544;45.566;10.238;2023-05-10T05:30:28;4.50;;;4.10;;
79137;SDS011;68544;45.566;10.238;2023-05-10T05:32:53;4.90;;;4.07;;
79137;SDS011;68544;45.566;10.238;2023-05-10T05:35:19;4.37;;;3.87;;
79137;SDS011;68544;45.566;10.238;2023-05-10T05:37:44;6.07;;;3.93;;
79137;SDS011;68544;45.566;10.238;2023-05-10T05:40:12;4.93;;;4.32;;
79137;SDS011;68544;45.566;10.238;2023-05-10T05:42:38;5.13;;;4.60;;
79137;SDS011;68544;45.566;10.238;2023-05-10T05:45:04;6.13;;;4.90;;
79137;SDS011;68544;45.566;10.238;2023-05-10T05:47:30;5.05;;;4.32;;
79137;SDS011;68544;45.566;10.238;2023-05-10T05:49:55;7.13;;;5.23;;
79137;SDS011;68544;45.566;10.238;2023-05-10T05:52:24;6.97;;;5.90;;
79137;SDS011;68544;45.566;10.238;2023-05-10T05:54:49;6.13;;;5.53;;
79137;SDS011;68544;45.566;10.238;2023-05-10T05:57:14;6.73;;;5.93;;
79137;SDS011;68544;45.566;10.238;2023-05-10T05:59:40;5.87;;;5.27;;
79137;SDS011;68544;45.566;10.238;2023-05-10T06:02:09;6.20;;;5.53;;
79137;SDS011;68544;45.566;10.238;2023-05-10T06:04:35;7.57;;;5.80;;
79137;SDS011;68544;45.566;10.238;2023-05-10T06:07:00;6.40;;;5.80;;
79137;SDS011;68544;45.566;10.238;2023-05-10T06:09:26;5.63;;;5.13;;
79137;SDS011;68544;45.566;10.238;2023-05-10T06:11:51;5.43;;;4.60;;
79137;SDS011;68544;45.566;10.238;2023-05-10T06:14:17;5.50;;;5.00;;
79137;SDS011;68544;45.566;10.238;2023-05-10T06:16:42;5.27;;;4.77;;
79137;SDS011;68544;45.566;10.238;2023-05-10T06:19:07;8.17;;;5.70;;
79137;SDS011;68544;45.566;10.238;2023-05-10T06:21:33;7.23;;;5.80;;
79137;SDS011;68544;45.566;10.238;2023-05-10T06:23:58;9.17;;;7.03;;
79137;SDS011;68544;45.566;10.238;2023-05-10T06:26:24;7.40;;;6.60;;
79137;SDS011;68544;45.566;10.238;2023-05-10T06:28:49;7.00;;;6.30;;
79137;SDS011;68544;45.566;10.238;2023-05-10T06:31:15;8.40;;;7.50;;
79137;SDS011;68544;45.566;10.238;2023-05-10T06:33:41;8.05;;;7.25;;
79137;SDS011;68544;45.566;10.238;2023-05-10T06:36:06;8.07;;;7.27;;
79137;SDS011;68544;45.566;10.238;2023-05-10T06:38:31;7.50;;;6.68;;
79137;SDS011;68544;45.566;10.238;2023-05-10T06:40:57;7.60;;;6.80;;
79137;SDS011;68544;45.566;10.238;2023-05-10T06:43:22;6.80;;;6.10;;
79137;SDS011;68544;45.566;10.238;2023-05-10T06:45:48;7.97;;;6.30;;
79137;SDS011;68544;45.566;10.238;2023-05-10T06:48:13;6.90;;;6.15;;
79137;SDS011;68544;45.566;10.238;2023-05-10T06:50:38;8.20;;;5.20;;
79137;SDS011;68544;45.566;10.238;2023-05-10T06:53:04;6.73;;;6.03;;
79137;SDS011;68544;45.566;10.238;2023-05-10T06:55:29;5.77;;;5.17;;
79137;SDS011;68544;45.566;10.238;2023-05-10T06:57:55;5.47;;;4.55;;
79137;SDS011;68544;45.566;10.238;2023-05-10T07:00:20;5.25;;;4.63;;
79137;SDS011;68544;45.566;10.238;2023-05-10T07:02:46;5.10;;;4.60;;
79137;SDS011;68544;45.566;10.238;2023-05-10T07:05:12;5.78;;;5.10;;
79137;SDS011;68544;45.566;10.238;2023-05-10T07:07:37;6.55;;;5.30;;
79137;SDS011;68544;45.566;10.238;2023-05-10T07:10:03;6.63;;;5.73;;
79137;SDS011;68544;45.566;10.238;2023-05-10T07:12:28;7.03;;;6.32;;
79137;SDS011;68544;45.566;10.238;2023-05-10T07:14:54;6.20;;;5.60;;
79137;SDS011;68544;45.566;10.238;2023-05-10T07:17:19;6.70;;;5.97;;
79137;SDS011;68544;45.566;10.238;2023-05-10T07:19:45;6.73;;;6.10;;
79137;SDS011;68544;45.566;10.238;2023-05-10T07:22:10;7.57;;;6.30;;
79137;SDS011;68544;45.566;10.238;2023-05-10T07:24:36;6.90;;;5.90;;
79137;SDS011;68544;45.566;10.238;2023-05-10T07:27:01;6.40;;;5.80;;
79137;SDS011;68544;45.566;10.238;2023-05-10T07:29:26;6.47;;;5.63;;
79137;SDS011;68544;45.566;10.238;2023-05-10T07:31:52;5.93;;;5.33;;
79137;SDS011;68544;45.566;10.238;2023-05-10T07:34:18;6.63;;;6.03;;
79137;SDS011;68544;45.566;10.238;2023-05-10T07:36:43;7.00;;;6.30;;
79137;SDS011;68544;45.566;10.238;2023-05-10T07:39:08;6.67;;;6.00;;
79137;SDS011;68544;45.566;10.238;2023-05-10T07:41:34;6.83;;;6.17;;
79137;SDS011;68544;45.566;10.238;2023-05-10T07:43:59;7.77;;;7.00;;
79137;SDS011;68544;45.566;10.238;2023-05-10T07:46:25;7.27;;;6.57;;
79137;SDS011;68544;45.566;10.238;2023-05-10T07:48:50;8.43;;;7.20;;
79137;SDS011;68544;45.566;10.238;2023-05-10T07:51:16;8.47;;;7.47;;
79137;SDS011;68544;45.566;10.238;2023-05-10T07:53:41;8.87;;;7.97;;
79137;SDS011;68544;45.566;10.238;2023-05-10T07:56:22;8.40;;;7.70;;
79137;SDS011;68544;45.566;10.238;2023-05-10T07:58:48;9.30;;;8.50;;
79137;SDS011;68544;45.566;10.238;2023-05-10T08:01:14;9.23;;;8.35;;
79137;SDS011;68544;45.566;10.238;2023-05-10T08:03:39;8.38;;;7.68;;
79137;SDS011;68544;45.566;10.238;2023-05-10T08:06:04;8.37;;;7.30;;
79137;SDS011;68544;45.566;10.238;2023-05-10T08:08:30;6.93;;;6.32;;
79137;SDS011;68544;45.566;10.238;2023-05-10T08:10:56;8.37;;;7.00;;
79137;SDS011;68544;45.566;10.238;2023-05-10T08:13:21;7.50;;;6.80;;
79137;SDS011;68544;45.566;10.238;2023-05-10T08:15:47;8.70;;;7.90;;
79137;SDS011;68544;45.566;10.238;2023-05-10T08:18:12;9.30;;;8.50;;
79137;SDS011;68544;45.566;10.238;2023-05-10T08:20:38;9.40;;;8.50;;
79137;SDS011;68544;45.566;10.238;2023-05-10T08:23:04;9.40;;;8.60;;
79137;SDS011;68544;45.566;10.238;2023-05-10T08:25:30;10.73;;;9.73;;
79137;SDS011;68544;45.566;10.238;2023-05-10T08:27:56;11.65;;;9.38;;
79137;SDS011;68544;45.566;10.238;2023-05-10T08:30:22;11.17;;;10.17;;
79137;SDS011;68544;45.566;10.238;2023-05-10T08:32:47;9.33;;;8.43;;
79137;SDS011;68544;45.566;10.238;2023-05-10T08:35:12;8.03;;;7.33;;
79137;SDS011;68544;45.566;10.238;2023-05-10T08:37:38;7.57;;;6.87;;
79137;SDS011;68544;45.566;10.238;2023-05-10T08:40:03;7.27;;;6.60;;
79137;SDS011;68544;45.566;10.238;2023-05-10T08:42:30;7.45;;;6.85;;
79137;SDS011;68544;45.566;10.238;2023-05-10T08:44:59;7.70;;;7.10;;
79137;SDS011;68544;45.566;10.238;2023-05-10T08:49:51;8.60;;;7.80;;
79137;SDS011;68544;45.566;10.238;2023-05-10T08:54:43;9.57;;;8.57;;
79137;SDS011;68544;45.566;10.238;2023-05-10T08:57:09;8.57;;;7.88;;
79137;SDS011;68544;45.566;10.238;2023-05-10T08:59:35;8.70;;;8.00;;
79137;SDS011;68544;45.566;10.238;2023-05-10T09:02:03;7.60;;;7.00;;
79137;SDS011;68544;45.566;10.238;2023-05-10T09:04:30;7.00;;;6.50;;
79137;SDS011;68544;45.566;10.238;2023-05-10T09:06:56;6.55;;;6.05;;
79137;SDS011;68544;45.566;10.238;2023-05-10T09:09:22;6.50;;;5.90;;
79137;SDS011;68544;45.566;10.238;2023-05-10T09:11:49;6.45;;;5.95;;
79137;SDS011;68544;45.566;10.238;2023-05-10T09:14:14;6.50;;;6.00;;
79137;SDS011;68544;45.566;10.238;2023-05-10T09:16:40;6.80;;;6.20;;
79137;SDS011;68544;45.566;10.238;2023-05-10T09:19:06;7.30;;;6.60;;
79137;SDS011;68544;45.566;10.238;2023-05-10T09:21:34;6.43;;;5.82;;
79137;SDS011;68544;45.566;10.238;2023-05-10T09:24:03;6.93;;;6.32;;
79137;SDS011;68544;45.566;10.238;2023-05-10T09:26:30;5.35;;;4.93;;
79137;SDS011;68544;45.566;10.238;2023-05-10T09:28:56;5.27;;;4.87;;
79137;SDS011;68544;45.566;10.238;2023-05-10T09:31:23;5.95;;;5.47;;
79137;SDS011;68544;45.566;10.238;2023-05-10T09:33:52;5.30;;;4.80;;
79137;SDS011;68544;45.566;10.238;2023-05-10T09:36:18;5.70;;;5.20;;
79137;SDS011;68544;45.566;10.238;2023-05-10T09:41:20;5.75;;;5.25;;
79137;SDS011;68544;45.566;10.238;2023-05-10T09:43:46;5.50;;;5.00;;
79137;SDS011;68544;45.566;10.238;2023-05-10T09:46:12;5.53;;;4.97;;
79137;SDS011;68544;45.566;10.238;2023-05-10T09:48:45;5.80;;;5.30;;
79137;SDS011;68544;45.566;10.238;2023-05-10T09:51:18;4.80;;;4.40;;
79137;SDS011;68544;45.566;10.238;2023-05-10T09:53:48;5.68;;;5.10;;
79137;SDS011;68544;45.566;10.238;2023-05-10T09:56:32;4.72;;;4.32;;
79137;SDS011;68544;45.566;10.238;2023-05-10T09:59:02;5.15;;;4.75;;
79137;SDS011;68544;45.566;10.238;2023-05-10T10:01:28;5.20;;;4.63;;
79137;SDS011;68544;45.566;10.238;2023-05-10T10:03:54;5.38;;;4.97;;
79137;SDS011;68544;45.566;10.238;2023-05-10T10:06:22;4.90;;;4.50;;
79137;SDS011;68544;45.566;10.238;2023-05-10T10:08:48;4.90;;;4.50;;
79137;SDS011;68544;45.566;10.238;2023-05-10T10:11:14;4.75;;;4.35;;
79137;SDS011;68544;45.566;10.238;2023-05-10T10:13:39;4.93;;;4.50;;
79137;SDS011;68544;45.566;10.238;2023-05-10T10:16:05;4.65;;;4.30;;
79137;SDS011;68544;45.566;10.238;2023-05-10T10:18:31;6.30;;;4.35;;
79137;SDS011;68544;45.566;10.238;2023-05-10T10:20:57;5.15;;;4.65;;
79137;SDS011;68544;45.566;10.238;2023-05-10T10:23:23;6.78;;;6.07;;
79137;SDS011;68544;45.566;10.238;2023-05-10T10:25:48;5.43;;;5.03;;
79137;SDS011;68544;45.566;10.238;2023-05-10T10:29:00;5.38;;;4.88;;
79137;SDS011;68544;45.566;10.238;2023-05-10T10:34:22;6.13;;;5.60;;
79137;SDS011;68544;45.566;10.238;2023-05-10T10:36:52;5.75;;;5.15;;
79137;SDS011;68544;45.566;10.238;2023-05-10T10:39:18;5.38;;;4.45;;
79137;SDS011;68544;45.566;10.238;2023-05-10T10:41:55;5.47;;;4.97;;
79137;SDS011;68544;45.566;10.238;2023-05-10T10:44:23;5.43;;;5.03;;
79137;SDS011;68544;45.566;10.238;2023-05-10T10:47:05;6.43;;;5.82;;
79137;SDS011;68544;45.566;10.238;2023-05-10T10:49:37;6.63;;;5.65;;
79137;SDS011;68544;45.566;10.238;2023-05-10T10:52:13;6.38;;;5.72;;
79137;SDS011;68544;45.566;10.238;2023-05-10T10:54:49;5.90;;;5.50;;
79137;SDS011;68544;45.566;10.238;2023-05-10T10:57:17;7.65;;;6.97;;
79137;SDS011;68544;45.566;10.238;2023-05-10T10:59:44;7.18;;;6.57;;
79137;SDS011;68544;45.566;10.238;2023-05-10T11:02:10;7.22;;;6.53;;
79137;SDS011;68544;45.566;10.238;2023-05-10T11:08:20;7.55;;;6.95;;
79137;SDS011;68544;45.566;10.238;2023-05-10T11:13:31;6.85;;;6.35;;
79137;SDS011;68544;45.566;10.238;2023-05-10T11:15:58;7.25;;;6.65;;
79137;SDS011;68544;45.566;10.238;2023-05-10T11:18:36;7.82;;;7.10;;
79137;SDS011;68544;45.566;10.238;2023-05-10T11:21:02;8.38;;;7.68;;
79137;SDS011;68544;45.566;10.238;2023-05-10T11:23:33;8.07;;;7.38;;
79137;SDS011;68544;45.566;10.238;2023-05-10T11:26:13;7.93;;;7.22;;
79137;SDS011;68544;45.566;10.238;2023-05-10T11:31:09;10.38;;;9.55;;
79137;SDS011;68544;45.566;10.238;2023-05-10T11:36:20;16.13;;;14.93;;
79137;SDS011;68544;45.566;10.238;2023-05-10T11:38:53;15.18;;;13.88;;
79137;SDS011;68544;45.566;10.238;2023-05-10T11:41:20;16.00;;;14.68;;
79137;SDS011;68544;45.566;10.238;2023-05-10T11:43:47;16.17;;;14.98;;
79137;SDS011;68544;45.566;10.238;2023-05-10T11:46:14;15.27;;;14.02;;
79137;SDS011;68544;45.566;10.238;2023-05-10T11:48:42;12.02;;;10.93;;
79137;SDS011;68544;45.566;10.238;2023-05-10T11:51:08;10.32;;;9.52;;
79137;SDS011;68544;45.566;10.238;2023-05-10T11:53:34;10.35;;;9.55;;
79137;SDS011;68544;45.566;10.238;2023-05-10T11:56:03;9.93;;;9.10;;
79137;SDS011;68544;45.566;10.238;2023-05-10T11:58:33;9.98;;;9.07;;
79137;SDS011;68544;45.566;10.238;2023-05-10T12:01:00;9.90;;;9.10;;
79137;SDS011;68544;45.566;10.238;2023-05-10T12:03:26;8.25;;;7.47;;
79137;SDS011;68544;45.566;10.238;2023-05-10T12:05:53;7.82;;;6.90;;
79137;SDS011;68544;45.566;10.238;2023-05-10T12:08:26;7.20;;;6.60;;
79137;SDS011;68544;45.566;10.238;2023-05-10T12:10:53;6.88;;;6.28;;
79137;SDS011;68544;45.566;10.238;2023-05-10T12:13:28;7.50;;;6.90;;
79137;SDS011;68544;45.566;10.238;2023-05-10T12:15:54;7.75;;;7.05;;
79137;SDS011;68544;45.566;10.238;2023-05-10T12:18:23;8.70;;;8.00;;
79137;SDS011;68544;45.566;10.238;2023-05-10T12:20:52;9.23;;;7.68;;
79137;SDS011;68544;45.566;10.238;2023-05-10T12:23:18;9.05;;;8.35;;
79137;SDS011;68544;45.566;10.238;2023-05-10T12:25:45;8.50;;;7.80;;
79137;SDS011;68544;45.566;10.238;2023-05-10T12:28:11;9.55;;;8.65;;
79137;SDS011;68544;45.566;10.238;2023-05-10T12:30:37;9.02;;;8.23;;
79137;SDS011;68544;45.566;10.238;2023-05-10T12:35:47;8.15;;;7.47;;
79137;SDS011;68544;45.566;10.238;2023-05-10T12:38:27;8.35;;;7.57;;
79137;SDS011;68544;45.566;10.238;2023-05-10T12:41:00;8.18;;;7.47;;
79137;SDS011;68544;45.566;10.238;2023-05-10T12:43:28;9.23;;;8.43;;
79137;SDS011;68544;45.566;10.238;2023-05-10T12:45:54;9.45;;;8.55;;
79137;SDS011;68544;45.566;10.238;2023-05-10T12:48:20;8.68;;;7.68;;
79137;SDS011;68544;45.566;10.238;2023-05-10T12:50:45;7.60;;;7.00;;
79137;SDS011;68544;45.566;10.238;2023-05-10T12:53:13;8.48;;;7.80;;
79137;SDS011;68544;45.566;10.238;2023-05-10T12:55:43;9.27;;;8.50;;
79137;SDS011;68544;45.566;10.238;2023-05-10T12:58:08;8.48;;;7.88;;
79137;SDS011;68544;45.566;10.238;2023-05-10T13:00:34;8.17;;;7.57;;
79137;SDS011;68544;45.566;10.238;2023-05-10T13:02:59;7.82;;;7.22;;
79137;SDS011;68544;45.566;10.238;2023-05-10T13:05:24;8.03;;;7.33;;
79137;SDS011;68544;45.566;10.238;2023-05-10T13:07:50;7.60;;;6.97;;
79137;SDS011;68544;45.566;10.238;2023-05-10T13:10:15;8.27;;;7.00;;
79137;SDS011;68544;45.566;10.238;2023-05-10T13:12:41;8.73;;;7.70;;
79137;SDS011;68544;45.566;10.238;2023-05-10T13:15:06;8.23;;;7.53;;
79137;SDS011;68544;45.566;10.238;2023-05-10T13:17:32;7.18;;;6.57;;
79137;SDS011;68544;45.566;10.238;2023-05-10T13:19:57;6.70;;;6.20;;
79137;SDS011;68544;45.566;10.238;2023-05-10T13:22:23;6.60;;;6.00;;
79137;SDS011;68544;45.566;10.238;2023-05-10T13:24:48;7.67;;;7.07;;
79137;SDS011;68544;45.566;10.238;2023-05-10T13:27:14;7.27;;;6.67;;
79137;SDS011;68544;45.566;10.238;2023-05-10T13:29:39;7.30;;;6.70;;
79137;SDS011;68544;45.566;10.238;2023-05-10T13:32:04;7.93;;;7.13;;
79137;SDS011;68544;45.566;10.238;2023-05-10T13:34:30;7.93;;;7.13;;
79137;SDS011;68544;45.566;10.238;2023-05-10T13:36:55;7.17;;;6.67;;
79137;SDS011;68544;45.566;10.238;2023-05-10T13:39:21;7.28;;;6.68;;
79137;SDS011;68544;45.566;10.238;2023-05-10T13:41:47;7.85;;;7.15;;
79137;SDS011;68544;45.566;10.238;2023-05-10T13:44:13;8.40;;;7.53;;
79137;SDS011;68544;45.566;10.238;2023-05-10T13:46:39;8.18;;;7.15;;
79137;SDS011;68544;45.566;10.238;2023-05-10T13:49:06;8.50;;;7.78;;
79137;SDS011;68544;45.566;10.238;2023-05-10T13:51:33;7.50;;;6.45;;
79137;SDS011;68544;45.566;10.238;2023-05-10T13:53:58;7.15;;;6.53;;
79137;SDS011;68544;45.566;10.238;2023-05-10T13:56:24;8.23;;;7.63;;
79137;SDS011;68544;45.566;10.238;2023-05-10T13:58:49;7.90;;;7.30;;
79137;SDS011;68544;45.566;10.238;2023-05-10T14:01:14;8.40;;;7.70;;
79137;SDS011;68544;45.566;10.238;2023-05-10T14:03:40;8.37;;;7.67;;
79137;SDS011;68544;45.566;10.238;2023-05-10T14:06:05;8.82;;;8.02;;
79137;SDS011;68544;45.566;10.238;2023-05-10T14:08:32;7.50;;;6.88;;
79137;SDS011;68544;45.566;10.238;2023-05-10T14:10:57;9.20;;;8.40;;
79137;SDS011;68544;45.566;10.238;2023-05-10T14:13:23;9.32;;;8.63;;
79137;SDS011;68544;45.566;10.238;2023-05-10T14:15:49;9.80;;;9.10;;
79137;SDS011;68544;45.566;10.238;2023-05-10T14:18:15;10.90;;;10.10;;
79137;SDS011;68544;45.566;10.238;2023-05-10T14:20:40;10.80;;;9.90;;
79137;SDS011;68544;45.566;10.238;2023-05-10T14:23:05;11.77;;;10.83;;
79137;SDS011;68544;45.566;10.238;2023-05-10T14:25:31;12.02;;;11.13;;
79137;SDS011;68544;45.566;10.238;2023-05-10T14:27:56;13.07;;;12.07;;
79137;SDS011;68544;45.566;10.238;2023-05-10T14:30:22;13.33;;;12.23;;
79137;SDS011;68544;45.566;10.238;2023-05-10T14:32:47;11.73;;;10.83;;
79137;SDS011;68544;45.566;10.238;2023-05-10T14:35:13;11.82;;;10.82;;
79137;SDS011;68544;45.566;10.238;2023-05-10T14:37:38;10.60;;;9.80;;
79137;SDS011;68544;45.566;10.238;2023-05-10T14:40:03;10.93;;;10.10;;
79137;SDS011;68544;45.566;10.238;2023-05-10T14:42:29;10.75;;;9.95;;
79137;SDS011;68544;45.566;10.238;2023-05-10T14:47:21;8.95;;;8.30;;
79137;SDS011;68544;45.566;10.238;2023-05-10T14:49:46;9.60;;;8.80;;
79137;SDS011;68544;45.566;10.238;2023-05-10T14:52:12;9.63;;;8.87;;
79137;SDS011;68544;45.566;10.238;2023-05-10T14:54:39;9.02;;;8.27;;
79137;SDS011;68544;45.566;10.238;2023-05-10T14:57:05;10.60;;;9.80;;
79137;SDS011;68544;45.566;10.238;2023-05-10T14:59:31;10.88;;;9.98;;
79137;SDS011;68544;45.566;10.238;2023-05-10T15:01:56;10.23;;;9.30;;
79137;SDS011;68544;45.566;10.238;2023-05-10T15:04:22;9.43;;;8.60;;
79137;SDS011;68544;45.566;10.238;2023-05-10T15:06:47;9.70;;;8.80;;
79137;SDS011;68544;45.566;10.238;2023-05-10T15:09:13;9.05;;;8.32;;
79137;SDS011;68544;45.566;10.238;2023-05-10T15:11:38;9.50;;;8.57;;
79137;SDS011;68544;45.566;10.238;2023-05-10T15:14:03;9.90;;;9.20;;
79137;SDS011;68544;45.566;10.238;2023-05-10T15:16:29;11.33;;;10.43;;
79137;SDS011;68544;45.566;10.238;2023-05-10T15:18:54;11.87;;;10.87;;
79137;SDS011;68544;45.566;10.238;2023-05-10T15:21:20;12.80;;;11.82;;
79137;SDS011;68544;45.566;10.238;2023-05-10T15:23:45;12.70;;;11.80;;
79137;SDS011;68544;45.566;10.238;2023-05-10T15:26:11;12.57;;;11.68;;
79137;SDS011;68544;45.566;10.238;2023-05-10T15:28:36;12.87;;;11.87;;
79137;SDS011;68544;45.566;10.238;2023-05-10T15:31:01;11.67;;;10.60;;
79137;SDS011;68544;45.566;10.238;2023-05-10T15:33:27;11.20;;;10.35;;
79137;SDS011;68544;45.566;10.238;2023-05-10T15:35:53;11.55;;;10.55;;